Time;durP1;ratioP1;P1;durP2;ratioP2;P2;SDS_P1;SDS_P2;PMS_P1;PMS_P2;Temp;Humidity;BMP_temperature;BMP_pressure;BME280_temperature;BME280_humidity;BME280_pressure;Samples;Min_cycle;Max_cycle;Signal;HPM_P1;HPM_P2
2022/08/13 04:00:35;;;;;;;4.47;2.38;;;13.20;97.60;;;;;;5883286;23;20059;-67
2022/08/13 04:03:12;;;;;;;2.70;2.50;;;13.20;97.90;;;;;;4977303;28;20075;-67
2022/08/13 04:05:37;;;;;;;3.25;2.50;;;13.20;97.90;;;;;;4976416;28;20040;-67
2022/08/13 04:08:04;;;;;;;3.30;2.85;;;13.30;98.00;;;;;;4977588;28;20509;-67
2022/08/13 04:10:29;;;;;;;3.03;2.65;;;13.30;98.00;;;;;;4975121;28;20040;-67
2022/08/13 04:12:55;;;;;;;4.25;2.13;;;13.40;98.20;;;;;;4962343;28;20043;-67
2022/08/13 04:15:20;;;;;;;2.50;2.30;;;13.40;97.70;;;;;;4978301;28;20035;-68
2022/08/13 04:17:46;;;;;;;2.53;2.20;;;13.40;97.40;;;;;;4977100;28;20374;-67
2022/08/13 04:20:12;;;;;;;3.15;2.70;;;13.40;97.50;;;;;;4960167;28;20445;-67
2022/08/13 04:22:38;;;;;;;2.85;2.55;;;13.30;97.50;;;;;;4962300;28;20482;-67
2022/08/13 04:25:09;;;;;;;2.85;2.40;;;13.20;97.60;;;;;;4968679;28;20031;-67
2022/08/13 04:27:35;;;;;;;2.85;2.53;;;13.30;98.10;;;;;;4967249;28;20103;-67
2022/08/13 04:30:03;;;;;;;4.20;2.70;;;13.30;97.80;;;;;;4974725;28;20043;-67
2022/08/13 04:32:29;;;;;;;3.85;2.40;;;13.30;98.20;;;;;;4961331;28;20126;-67
2022/08/13 04:34:54;;;;;;;2.95;2.47;;;13.30;97.90;;;;;;4974544;28;20125;-67
2022/08/13 04:37:22;;;;;;;4.03;2.50;;;13.20;98.10;;;;;;4976204;28;20110;-67
2022/08/13 04:39:53;;;;;;;5.05;2.70;;;13.30;98.70;;;;;;4967295;28;20047;-67
2022/08/13 04:42:19;;;;;;;4.00;2.55;;;13.40;98.30;;;;;;4960027;28;20042;-67
2022/08/13 04:44:45;;;;;;;4.45;2.88;;;13.30;97.80;;;;;;4964724;28;20043;-67
2022/08/13 04:47:10;;;;;;;3.20;2.72;;;13.30;98.30;;;;;;4963893;28;20047;-67
2022/08/13 04:49:36;;;;;;;3.85;2.58;;;13.30;97.90;;;;;;4965994;28;20043;-67
2022/08/13 04:52:01;;;;;;;3.40;2.85;;;13.30;98.40;;;;;;4964294;28;20036;-68
2022/08/13 04:54:28;;;;;;;7.13;2.70;;;13.40;98.20;;;;;;4969512;28;20095;-67
2022/08/13 04:56:54;;;;;;;3.85;2.70;;;13.40;98.40;;;;;;4958071;28;20087;-67
2022/08/13 04:59:22;;;;;;;3.67;2.63;;;13.50;98.30;;;;;;4964380;28;20094;-67
2022/08/13 05:01:48;;;;;;;4.00;3.25;;;13.40;98.20;;;;;;4964490;28;20034;-67
2022/08/13 05:04:15;;;;;;;3.38;2.72;;;13.50;98.40;;;;;;4966350;28;20035;-67
2022/08/13 05:06:42;;;;;;;3.50;2.70;;;13.50;98.20;;;;;;4964345;28;20035;-67
2022/08/13 05:09:07;;;;;;;6.40;2.65;;;13.50;98.50;;;;;;4973156;28;20098;-67
2022/08/13 05:11:33;;;;;;;3.47;3.17;;;13.60;98.50;;;;;;4971747;28;20135;-67
2022/08/13 05:13:58;;;;;;;3.53;3.05;;;13.70;98.50;;;;;;4963107;28;20470;-67
2022/08/13 05:16:24;;;;;;;3.92;3.50;;;13.70;98.40;;;;;;4970106;28;20517;-67
2022/08/13 05:18:56;;;;;;;3.45;2.78;;;13.80;98.40;;;;;;4972728;28;20106;-68
2022/08/13 05:21:22;;;;;;;3.15;2.85;;;13.90;98.30;;;;;;4960428;28;20118;-68
2022/08/13 05:23:53;;;;;;;5.65;3.15;;;14.00;98.30;;;;;;4971976;28;20042;-67
2022/08/13 05:26:24;;;;;;;3.10;2.60;;;14.10;98.30;;;;;;4975078;28;20106;-67
2022/08/13 05:28:50;;;;;;;3.15;2.80;;;14.10;97.90;;;;;;4959448;28;20553;-67
2022/08/13 05:31:19;;;;;;;3.83;2.80;;;14.20;97.80;;;;;;4971775;28;20039;-67
2022/08/13 05:33:45;;;;;;;4.10;3.00;;;14.30;98.40;;;;;;4961685;28;20043;-67
2022/08/13 05:36:11;;;;;;;3.28;2.80;;;14.50;97.60;;;;;;4955134;28;20040;-67
2022/08/13 05:38:37;;;;;;;6.38;2.70;;;14.60;97.50;;;;;;4957278;28;20420;-67
2022/08/13 05:41:05;;;;;;;4.35;2.83;;;14.80;96.70;;;;;;4969199;28;20050;-68
2022/08/13 05:43:36;;;;;;;4.82;2.92;;;15.00;96.50;;;;;;4958579;28;20038;-67
2022/08/13 05:46:08;;;;;;;4.57;2.67;;;15.10;96.70;;;;;;4965451;28;20042;-67
2022/08/13 05:48:34;;;;;;;3.40;2.67;;;15.20;96.70;;;;;;4973178;28;20042;-67
2022/08/13 05:51:03;;;;;;;9.15;3.13;;;15.20;96.10;;;;;;4967807;28;20118;-67
2022/08/13 05:53:30;;;;;;;4.25;2.55;;;15.40;95.80;;;;;;4966757;28;20032;-67
2022/08/13 05:55:55;;;;;;;4.07;2.40;;;15.50;95.40;;;;;;4965021;28;20528;-67
2022/08/13 05:58:23;;;;;;;4.47;2.22;;;15.70;95.40;;;;;;4967026;28;20044;-67
2022/08/13 06:03:35;;;;;;;2.97;2.35;;;15.90;94.80;;;;;;4965563;28;20036;-67
2022/08/13 06:06:06;;;;;;;2.50;2.20;;;16.00;94.80;;;;;;4964496;28;20039;-75
2022/08/13 06:08:37;;;;;;;7.18;2.28;;;16.10;94.60;;;;;;4965585;28;20098;-68
2022/08/13 06:11:16;;;;;;;2.50;2.30;;;16.10;94.10;;;;;;4967649;28;20043;-68
2022/08/13 06:13:43;;;;;;;3.92;2.10;;;16.20;94.10;;;;;;4964291;28;20031;-68
2022/08/13 06:16:11;;;;;;;6.15;2.40;;;16.30;93.80;;;;;;4969390;28;20036;-68
2022/08/13 06:18:46;;;;;;;2.85;2.25;;;16.40;93.80;;;;;;4962030;28;20046;-68
2022/08/13 06:21:13;;;;;;;4.15;2.17;;;16.50;93.80;;;;;;4970208;28;20039;-68
2022/08/13 06:23:41;;;;;;;3.05;2.10;;;16.60;93.20;;;;;;4966322;28;20103;-68
2022/08/13 06:26:10;;;;;;;2.83;1.92;;;16.70;93.20;;;;;;4967547;28;20484;-68
2022/08/13 06:28:36;;;;;;;2.30;2.10;;;16.70;93.20;;;;;;4957541;28;20050;-74
2022/08/13 06:31:05;;;;;;;2.50;2.30;;;16.70;93.10;;;;;;4964791;28;20039;-70
2022/08/13 06:33:33;;;;;;;3.55;2.38;;;16.80;93.30;;;;;;4960918;28;20116;-69
2022/08/13 06:36:12;;;;;;;4.30;2.20;;;16.90;92.90;;;;;;4958983;28;20126;-69
2022/08/13 06:38:42;;;;;;;3.00;2.03;;;17.00;92.80;;;;;;4971811;28;20591;-69
2022/08/13 06:41:09;;;;;;;2.55;2.35;;;17.10;92.30;;;;;;4967245;28;20047;-69
2022/08/13 06:43:39;;;;;;;2.22;1.85;;;17.20;92.30;;;;;;4975643;28;20036;-69
2022/08/13 06:46:05;;;;;;;3.42;1.88;;;17.40;91.90;;;;;;4957229;28;20035;-70
2022/08/13 06:48:35;;;;;;;2.22;2.00;;;17.50;91.70;;;;;;4956562;28;20036;-70
2022/08/13 06:51:07;;;;;;;2.78;1.90;;;17.60;91.40;;;;;;4955002;28;20095;-70
2022/08/13 06:53:35;;;;;;;3.65;2.13;;;17.70;91.40;;;;;;4955784;28;20036;-71
2022/08/13 06:56:03;;;;;;;3.85;2.00;;;17.90;90.50;;;;;;4956802;28;20036;-71
2022/08/13 06:58:30;;;;;;;2.33;2.05;;;18.00;90.50;;;;;;4975373;28;20036;-70
2022/08/13 07:00:58;;;;;;;3.60;2.13;;;18.10;90.10;;;;;;4973380;28;20043;-71
2022/08/13 07:03:30;;;;;;;3.15;1.98;;;18.20;90.10;;;;;;4975171;28;20038;-70
2022/08/13 07:05:56;;;;;;;4.78;2.10;;;18.40;89.60;;;;;;4974827;28;20042;-71
2022/08/13 07:08:24;;;;;;;4.47;2.03;;;18.60;88.90;;;;;;4975486;28;20111;-73
2022/08/13 07:11:21;;;;;;;5.85;2.20;;;18.80;89.60;;;;;;4975294;28;20050;-72
2022/08/13 07:13:45;;;;;;;2.38;1.98;;;19.00;87.70;;;;;;4972748;28;20043;-71
2022/08/13 07:16:16;;;;;;;2.53;1.70;;;19.20;86.90;;;;;;4966499;28;20095;-70
2022/08/13 07:18:46;;;;;;;3.75;1.98;;;19.40;86.90;;;;;;4960346;28;20039;-71
2022/08/13 07:21:13;;;;;;;2.75;2.00;;;19.50;85.50;;;;;;4959223;28;20533;-72
2022/08/13 07:23:42;;;;;;;3.10;2.10;;;19.70;85.30;;;;;;4974883;28;20122;-72
2022/08/13 07:26:09;;;;;;;2.92;1.88;;;19.80;84.40;;;;;;4969702;28;20548;-72
2022/08/13 07:28:35;;;;;;;6.47;2.17;;;20.10;84.70;;;;;;4976922;28;20128;-72
2022/08/13 07:31:05;;;;;;;4.22;2.30;;;20.20;83.20;;;;;;4961702;28;20194;-71
2022/08/13 07:33:34;;;;;;;3.17;2.00;;;20.50;81.80;;;;;;4958252;28;20111;-70
2022/08/13 07:36:04;;;;;;;2.60;2.40;;;20.80;80.50;;;;;;4976711;28;20035;-70
2022/08/13 07:38:31;;;;;;;2.17;1.98;;;21.20;80.50;;;;;;4977020;28;20031;-71
2022/08/13 07:40:59;;;;;;;3.95;2.03;;;21.50;78.90;;;;;;4964426;28;20052;-74
2022/08/13 07:43:26;;;;;;;3.17;2.00;;;21.60;78.50;;;;;;4976823;28;20039;-72
2022/08/13 07:46:18;;;;;;;4.28;2.22;;;21.80;78.50;;;;;;4976301;28;20035;-70
2022/08/13 07:48:49;;;;;;;3.10;2.05;;;22.20;76.90;;;;;;4959700;28;20473;-70
2022/08/13 07:51:19;;;;;;;2.20;2.00;;;22.50;75.00;;;;;;4969330;28;20039;-69
2022/08/13 07:53:47;;;;;;;2.67;1.98;;;22.70;75.20;;;;;;4966634;28;20066;-69
2022/08/13 07:56:28;;;;;;;1.92;1.80;;;23.10;73.80;;;;;;4964614;28;20694;-71
2022/08/13 07:58:57;;;;;;;5.22;2.10;;;23.30;73.00;;;;;;4969265;28;20043;-69
2022/08/13 08:01:27;;;;;;;3.35;2.10;;;23.40;71.70;;;;;;4965121;28;20068;-71
2022/08/13 08:03:55;;;;;;;6.53;2.00;;;23.40;71.80;;;;;;4967324;28;20078;-69
2022/08/13 08:06:22;;;;;;;3.05;2.35;;;23.80;70.40;;;;;;4961402;28;20098;-69
2022/08/13 08:08:53;;;;;;;2.85;2.00;;;24.00;70.20;;;;;;4958932;28;20513;-69
2022/08/13 08:14:04;;;;;;;3.30;2.00;;;24.50;69.10;;;;;;4962582;28;20039;-68
2022/08/13 08:16:31;;;;;;;3.97;2.00;;;24.90;67.50;;;;;;4978006;28;20509;-69
2022/08/13 08:18:59;;;;;;;2.55;2.05;;;25.10;67.00;;;;;;4974526;28;20039;-69
2022/08/13 08:21:26;;;;;;;3.25;1.80;;;25.30;66.90;;;;;;4958588;28;20040;-69
2022/08/13 08:23:59;;;;;;;2.05;1.88;;;25.40;66.00;;;;;;4958775;28;20118;-69
2022/08/13 08:26:33;;;;;;;2.30;1.80;;;25.50;67.10;;;;;;4969045;28;20084;-70
2022/08/13 08:29:04;;;;;;;2.00;1.80;;;25.80;65.40;;;;;;4969175;28;20062;-69
2022/08/13 08:31:32;;;;;;;4.20;1.90;;;25.90;63.50;;;;;;4958337;28;20036;-69
2022/08/13 08:34:00;;;;;;;2.33;1.77;;;26.10;63.40;;;;;;4963601;28;20793;-69
2022/08/13 08:36:27;;;;;;;3.67;1.80;;;26.20;63.80;;;;;;4967217;28;20094;-69
2022/08/13 08:44:29;;;;;;;3.15;1.73;;;26.40;62.50;;;;;;4965927;28;20498;-69
2022/08/13 08:46:56;;;;;;;4.05;1.80;;;26.60;60.90;;;;;;4965160;28;20490;-69
2022/08/13 08:49:24;;;;;;;4.35;1.92;;;26.40;60.70;;;;;;4967305;28;20078;-70
2022/08/13 08:51:51;;;;;;;2.08;1.85;;;26.10;61.60;;;;;;4965158;28;20035;-69
2022/08/13 08:54:18;;;;;;;3.05;2.40;;;25.90;62.90;;;;;;4965314;28;21127;-70
2022/08/13 08:56:46;;;;;;;4.05;1.90;;;26.10;62.70;;;;;;4962039;28;20570;-68
2022/08/13 08:59:13;;;;;;;3.58;2.03;;;26.70;61.00;;;;;;4969069;28;20087;-70
2022/08/13 09:01:40;;;;;;;5.03;1.67;;;27.00;59.60;;;;;;4973358;28;20039;-69
2022/08/13 09:04:08;;;;;;;3.85;2.00;;;27.20;58.60;;;;;;4959033;28;20031;-72
2022/08/13 09:06:34;;;;;;;3.63;2.00;;;27.40;59.00;;;;;;4958295;28;20058;-71
2022/08/13 09:09:06;;;;;;;1.98;1.80;;;27.80;58.60;;;;;;4959428;28;20537;-71
2022/08/13 09:11:35;;;;;;;4.82;1.90;;;27.90;58.70;;;;;;4968814;28;20174;-71
2022/08/13 09:14:10;;;;;;;2.50;1.88;;;28.10;58.10;;;;;;4974203;28;20094;-71
2022/08/13 09:16:38;;;;;;;2.35;1.70;;;28.30;56.30;;;;;;4976630;28;20038;-71
2022/08/13 09:19:12;;;;;;;3.40;1.85;;;28.40;55.40;;;;;;4970140;28;20040;-71
2022/08/13 09:21:48;;;;;;;5.10;1.85;;;28.40;55.70;;;;;;4957764;28;20074;-71
2022/08/13 09:24:17;;;;;;;2.67;1.70;;;28.40;55.20;;;;;;4958831;28;20492;-70
2022/08/13 09:26:47;;;;;;;3.78;1.80;;;28.50;55.00;;;;;;4958717;28;20039;-71
2022/08/13 09:29:18;;;;;;;2.88;1.63;;;28.50;54.70;;;;;;4972946;28;20051;-70
2022/08/13 09:31:49;;;;;;;5.07;1.70;;;28.50;54.90;;;;;;4960047;28;20082;-70
2022/08/13 09:34:17;;;;;;;3.92;1.80;;;28.70;55.40;;;;;;4974906;28;20031;-71
2022/08/13 09:36:45;;;;;;;2.17;1.77;;;29.00;55.10;;;;;;4965032;28;20043;-71
2022/08/13 09:39:31;;;;;;;3.28;1.90;;;29.20;53.70;;;;;;4960508;28;20027;-70
2022/08/13 09:42:00;;;;;;;4.20;1.80;;;29.50;52.70;;;;;;4974206;28;20066;-71
2022/08/13 09:44:26;;;;;;;2.15;1.48;;;29.50;52.10;;;;;;4960312;28;20397;-70
2022/08/13 09:46:53;;;;;;;4.70;1.70;;;29.40;51.40;;;;;;4967637;28;20388;-70
2022/08/13 09:49:20;;;;;;;3.05;1.55;;;29.40;51.70;;;;;;4967064;28;20514;-70
2022/08/13 09:51:46;;;;;;;4.43;1.63;;;29.50;50.50;;;;;;4955741;28;20095;-70
2022/08/13 09:54:11;;;;;;;1.50;1.40;;;29.60;51.40;;;;;;4971623;28;20058;-70
2022/08/13 09:56:38;;;;;;;1.67;1.38;;;29.90;50.30;;;;;;4967384;28;20040;-70
2022/08/13 09:59:13;;;;;;;2.78;1.90;;;30.10;49.60;;;;;;4972965;28;20059;-70
2022/08/13 10:01:39;;;;;;;2.42;1.80;;;30.10;49.50;;;;;;4974736;28;20053;-70
2022/08/13 10:04:04;;;;;;;3.63;1.55;;;30.20;49.70;;;;;;4964824;28;20046;-70
2022/08/13 10:06:32;;;;;;;2.22;1.90;;;30.40;48.60;;;;;;4966986;28;20042;-70
2022/08/13 10:09:01;;;;;;;2.22;1.70;;;30.30;49.10;;;;;;4964395;28;20107;-71
2022/08/13 10:11:27;;;;;;;3.53;1.75;;;30.00;48.60;;;;;;4959121;28;20099;-71
2022/08/13 10:13:57;;;;;;;1.70;1.60;;;29.90;49.30;;;;;;4972772;28;20497;-70
2022/08/13 10:16:22;;;;;;;3.25;1.58;;;30.00;49.40;;;;;;4970987;28;20035;-70
2022/08/13 10:18:48;;;;;;;2.00;1.45;;;30.00;48.60;;;;;;4962164;28;20035;-71
2022/08/13 10:21:14;;;;;;;4.30;1.67;;;30.20;49.70;;;;;;4965656;28;20039;-70
2022/08/13 10:23:40;;;;;;;5.10;1.65;;;30.30;47.80;;;;;;4964665;28;20057;-70
2022/08/13 10:26:07;;;;;;;3.05;1.50;;;30.60;47.50;;;;;;4966698;28;20097;-70
2022/08/13 10:28:37;;;;;;;3.65;1.50;;;31.00;47.50;;;;;;4965675;28;20038;-71
2022/08/13 10:31:10;;;;;;;1.52;1.38;;;31.40;46.90;;;;;;4966670;28;20098;-70
2022/08/13 10:33:38;;;;;;;3.35;1.50;;;31.20;45.20;;;;;;4964650;28;20035;-71
2022/08/13 10:36:06;;;;;;;1.73;1.35;;;31.20;45.50;;;;;;4958350;28;20047;-71
2022/08/13 10:38:33;;;;;;;3.45;1.55;;;31.00;46.30;;;;;;4955575;28;20039;-71
2022/08/13 10:41:01;;;;;;;5.20;1.88;;;31.20;46.30;;;;;;4957797;28;20050;-70
2022/08/13 10:43:27;;;;;;;4.88;1.75;;;31.40;44.90;;;;;;4961562;28;20119;-70
2022/08/13 10:45:58;;;;;;;3.25;1.45;;;31.40;46.40;;;;;;4974738;28;20858;-71
2022/08/13 10:48:25;;;;;;;1.63;1.52;;;31.40;45.80;;;;;;4970358;28;20046;-70
2022/08/13 10:50:52;;;;;;;3.53;1.60;;;31.50;45.20;;;;;;4972132;28;20513;-70
2022/08/13 10:56:03;;;;;;;4.13;1.52;;;30.60;46.30;;;;;;4972835;28;20043;-70
2022/08/13 10:58:30;;;;;;;1.40;1.30;;;30.50;47.40;;;;;;4983902;28;20796;-70
2022/08/13 11:00:55;;;;;;;4.07;1.90;;;31.10;45.90;;;;;;4976384;28;20882;-71
2022/08/13 11:03:21;;;;;;;5.40;1.40;;;31.60;45.40;;;;;;4971030;28;20501;-71
2022/08/13 11:05:48;;;;;;;7.53;1.85;;;32.30;44.30;;;;;;4964773;28;20214;-70
2022/08/13 11:08:14;;;;;;;3.22;1.48;;;32.20;44.10;;;;;;4983665;28;20057;-71
2022/08/13 11:10:40;;;;;;;4.93;1.60;;;32.60;42.10;;;;;;4968960;28;20514;-71
2022/08/13 11:13:05;;;;;;;2.13;1.48;;;32.80;43.60;;;;;;4967753;28;20486;-71
2022/08/13 11:15:33;;;;;;;2.88;1.70;;;32.80;42.80;;;;;;4967027;28;20042;-71
2022/08/13 11:18:00;;;;;;;2.25;1.60;;;33.10;42.90;;;;;;4971126;28;20493;-72
2022/08/13 11:20:27;;;;;;;1.45;1.35;;;33.30;42.80;;;;;;4971688;28;20125;-71
2022/08/13 11:22:56;;;;;;;2.10;1.60;;;33.50;42.20;;;;;;4974989;28;20032;-71
2022/08/13 11:25:23;;;;;;;3.10;1.40;;;33.50;41.20;;;;;;4970956;28;20031;-71
2022/08/13 11:27:50;;;;;;;2.97;1.77;;;33.70;40.60;;;;;;4966858;28;20498;-71
2022/08/13 11:30:16;;;;;;;3.92;1.80;;;33.70;41.80;;;;;;4966212;28;20035;-71
2022/08/13 11:32:42;;;;;;;4.32;1.70;;;33.90;41.70;;;;;;4966031;28;20167;-71
2022/08/13 11:35:09;;;;;;;2.38;1.50;;;34.30;41.00;;;;;;4965877;28;20480;-71
2022/08/13 11:37:35;;;;;;;4.13;1.48;;;34.30;41.40;;;;;;4964535;28;20040;-71
2022/08/13 11:40:03;;;;;;;3.85;1.45;;;34.50;40.80;;;;;;4962483;28;20498;-71
2022/08/13 11:42:32;;;;;;;1.77;1.45;;;34.50;40.10;;;;;;4963993;28;20628;-71
2022/08/13 11:44:57;;;;;;;2.88;1.50;;;34.30;42.30;;;;;;4964357;28;20130;-71
2022/08/13 11:47:24;;;;;;;2.35;1.60;;;33.70;40.70;;;;;;4964203;28;20509;-71
2022/08/13 11:49:49;;;;;;;1.65;1.55;;;33.00;42.00;;;;;;4966723;28;20584;-71
2022/08/13 11:52:15;;;;;;;1.63;1.52;;;32.70;42.40;;;;;;4962901;28;20048;-71
2022/08/13 11:54:41;;;;;;;4.25;1.52;;;32.70;43.00;;;;;;4964655;28;20036;-71
2022/08/13 11:57:07;;;;;;;3.75;1.52;;;32.40;43.40;;;;;;4964717;28;20202;-71
2022/08/13 11:59:33;;;;;;;2.13;1.50;;;31.90;43.60;;;;;;4963347;28;20108;-71
2022/08/13 12:01:58;;;;;;;6.43;1.98;;;31.30;44.40;;;;;;4972334;28;20540;-71
2022/08/13 12:04:25;;;;;;;2.95;1.50;;;30.80;46.00;;;;;;4969615;28;20067;-71
2022/08/13 12:06:50;;;;;;;2.47;1.58;;;30.60;45.20;;;;;;4958834;28;20516;-71
2022/08/13 12:09:20;;;;;;;4.75;1.60;;;30.90;46.00;;;;;;4963871;28;20043;-71
2022/08/13 12:11:46;;;;;;;3.00;1.42;;;31.10;45.30;;;;;;4969293;28;20066;-71
2022/08/13 12:14:11;;;;;;;3.90;1.58;;;31.90;44.40;;;;;;4976159;28;20129;-71
2022/08/13 12:16:37;;;;;;;3.15;1.73;;;32.70;43.20;;;;;;4981147;28;20504;-72
2022/08/13 12:19:03;;;;;;;3.47;1.55;;;33.60;41.40;;;;;;4974764;28;20179;-73
2022/08/13 12:21:28;;;;;;;1.88;1.60;;;34.00;41.10;;;;;;4971380;28;20042;-75
2022/08/13 12:23:54;;;;;;;2.70;1.60;;;34.30;40.30;;;;;;4969633;28;20087;-72
2022/08/13 12:26:20;;;;;;;2.17;1.50;;;34.20;41.10;;;;;;4966071;28;20048;-72
2022/08/13 12:28:45;;;;;;;3.08;1.73;;;34.80;40.80;;;;;;4965470;28;20405;-73
2022/08/13 12:31:14;;;;;;;2.85;1.50;;;35.00;40.10;;;;;;4968098;28;20114;-72
2022/08/13 12:33:40;;;;;;;2.90;1.45;;;35.50;38.20;;;;;;4960782;28;20119;-72
2022/08/13 12:36:07;;;;;;;1.45;1.35;;;35.90;37.70;;;;;;4971939;28;20130;-72
2022/08/13 12:38:33;;;;;;;2.15;1.52;;;36.20;38.50;;;;;;4962410;28;20032;-72
2022/08/13 12:41:00;;;;;;;4.07;1.50;;;35.70;37.90;;;;;;4965832;28;20047;-72
2022/08/13 12:43:26;;;;;;;1.52;1.42;;;35.60;37.90;;;;;;4959457;28;20062;-73
2022/08/13 12:45:52;;;;;;;2.40;1.40;;;35.60;37.70;;;;;;4962720;28;20070;-72
2022/08/13 12:48:18;;;;;;;4.22;1.40;;;34.60;37.70;;;;;;4969012;28;20557;-73
2022/08/13 12:50:46;;;;;;;3.20;1.60;;;34.60;39.00;;;;;;4974747;28;20082;-71
2022/08/13 12:53:12;;;;;;;1.83;1.60;;;33.60;38.80;;;;;;4977180;28;20035;-73
2022/08/13 12:55:40;;;;;;;2.90;1.80;;;33.10;39.70;;;;;;4968919;28;20127;-73
2022/08/13 12:58:16;;;;;;;1.50;1.40;;;33.50;40.80;;;;;;4967379;28;20042;-71
2022/08/13 13:00:43;;;;;;;2.35;1.50;;;34.10;40.60;;;;;;4967814;28;20537;-73
2022/08/13 13:03:09;;;;;;;3.00;1.60;;;34.60;40.70;;;;;;4971981;28;20047;-71
2022/08/13 13:05:35;;;;;;;1.92;1.65;;;35.10;40.50;;;;;;4961276;28;20107;-71
2022/08/13 13:08:00;;;;;;;2.13;1.60;;;34.90;39.00;;;;;;4967788;28;20044;-71
2022/08/13 13:10:26;;;;;;;1.60;1.50;;;33.80;40.50;;;;;;4961921;28;20090;-71
2022/08/13 13:12:52;;;;;;;2.45;1.80;;;33.00;41.30;;;;;;4971062;28;20058;-75
2022/08/13 13:15:17;;;;;;;2.70;1.77;;;32.80;43.90;;;;;;4960285;28;20510;-75
2022/08/13 13:17:43;;;;;;;1.60;1.50;;;33.20;42.20;;;;;;4965711;28;20110;-73
2022/08/13 13:20:09;;;;;;;3.50;1.42;;;33.50;41.30;;;;;;4973030;28;20448;-73
2022/08/13 13:22:35;;;;;;;1.83;1.40;;;34.30;40.50;;;;;;4973060;28;20046;-73
2022/08/13 13:25:03;;;;;;;1.67;1.48;;;34.60;41.90;;;;;;4957287;28;20501;-73
2022/08/13 13:27:28;;;;;;;5.57;1.75;;;34.90;39.10;;;;;;4960923;28;20091;-73
2022/08/13 13:29:54;;;;;;;1.48;1.38;;;35.20;38.60;;;;;;4971005;28;20438;-73
2022/08/13 13:32:20;;;;;;;4.32;1.50;;;35.40;38.80;;;;;;4957754;28;20083;-74
2022/08/13 13:34:45;;;;;;;2.40;1.60;;;35.50;39.00;;;;;;4972594;28;20035;-74
2022/08/13 13:37:13;;;;;;;1.80;1.50;;;35.20;38.00;;;;;;4956708;28;20482;-74
2022/08/13 13:39:38;;;;;;;1.92;1.73;;;35.50;39.30;;;;;;4965615;28;20043;-74
2022/08/13 13:42:04;;;;;;;4.38;1.58;;;36.50;38.20;;;;;;4971504;28;20035;-74
2022/08/13 13:44:30;;;;;;;3.70;1.20;;;36.70;37.30;;;;;;4973042;28;20047;-74
2022/08/13 13:46:55;;;;;;;4.32;1.40;;;37.00;36.80;;;;;;4958790;28;20032;-74
2022/08/13 13:49:21;;;;;;;3.05;1.42;;;37.90;35.50;;;;;;4972965;28;20050;-74
2022/08/13 13:51:46;;;;;;;2.47;1.35;;;38.30;34.60;;;;;;4974755;28;20039;-74
2022/08/13 13:54:12;;;;;;;3.35;1.38;;;38.40;33.60;;;;;;4959660;28;20043;-74
2022/08/13 13:56:38;;;;;;;1.50;1.40;;;38.20;33.30;;;;;;4970125;28;20038;-74
2022/08/13 13:59:04;;;;;;;3.17;1.40;;;38.40;34.60;;;;;;4970317;28;20039;-74
2022/08/13 14:01:30;;;;;;;4.50;1.60;;;39.70;33.20;;;;;;4966099;28;20062;-75
2022/08/13 14:03:58;;;;;;;2.28;1.30;;;39.60;32.40;;;;;;4974459;28;20410;-75
2022/08/13 14:06:24;;;;;;;2.10;1.48;;;40.00;32.90;;;;;;4962940;28;20048;-74
2022/08/13 14:08:49;;;;;;;1.58;1.40;;;40.50;32.10;;;;;;4969512;28;20485;-75
2022/08/13 14:11:16;;;;;;;1.75;1.40;;;40.30;31.70;;;;;;4974182;28;20378;-75
2022/08/13 14:13:42;;;;;;;1.95;1.40;;;42.20;30.20;;;;;;4973774;28;20156;-75
2022/08/13 14:16:10;;;;;;;1.88;1.67;;;41.90;30.30;;;;;;4963842;28;20043;-75
2022/08/13 14:18:38;;;;;;;3.30;1.73;;;42.10;30.40;;;;;;4965743;28;20027;-75
2022/08/13 14:21:04;;;;;;;2.90;1.40;;;41.90;30.00;;;;;;4957425;28;20044;-75
2022/08/13 14:23:30;;;;;;;1.50;1.40;;;42.30;31.10;;;;;;4975356;28;20031;-75
2022/08/13 14:25:56;;;;;;;1.95;1.50;;;42.20;29.70;;;;;;4973273;28;20043;-75
2022/08/13 14:28:23;;;;;;;1.67;1.58;;;42.10;30.00;;;;;;4972804;28;20039;-75
2022/08/13 14:30:49;;;;;;;3.40;1.60;;;42.00;29.90;;;;;;4966164;28;20036;-75
2022/08/13 14:33:16;;;;;;;1.70;1.40;;;41.60;30.10;;;;;;4956673;28;20506;-75
2022/08/13 14:35:42;;;;;;;1.60;1.38;;;40.40;30.80;;;;;;4963878;28;20043;-75
2022/08/13 14:38:09;;;;;;;3.53;1.40;;;39.20;31.20;;;;;;4976093;28;20032;-75
2022/08/13 14:40:34;;;;;;;2.72;1.40;;;39.60;32.50;;;;;;4966199;28;20047;-75
2022/08/13 14:43:01;;;;;;;2.72;1.42;;;40.00;30.80;;;;;;4957949;28;20043;-75
2022/08/13 14:45:44;;;;;;;3.13;1.30;;;37.90;32.10;;;;;;4966898;28;20059;-75
2022/08/13 14:48:10;;;;;;;1.58;1.48;;;37.20;34.90;;;;;;4956576;28;20035;-75
2022/08/13 14:50:38;;;;;;;1.80;1.40;;;38.80;33.50;;;;;;4960118;28;20039;-75
2022/08/13 14:53:05;;;;;;;1.70;1.42;;;39.70;33.00;;;;;;4971932;28;20070;-75
2022/08/13 14:55:32;;;;;;;2.72;1.75;;;40.70;31.50;;;;;;4969037;28;20034;-76
2022/08/13 14:57:59;;;;;;;3.47;1.60;;;42.60;30.90;;;;;;4957345;28;20035;-76
2022/08/13 15:00:28;;;;;;;3.90;1.77;;;43.20;29.10;;;;;;4970183;28;20050;-75
2022/08/13 15:02:56;;;;;;;2.63;1.73;;;43.60;28.70;;;;;;4964328;28;20505;-76
2022/08/13 15:05:22;;;;;;;1.70;1.60;;;43.80;28.50;;;;;;4959681;28;20122;-76
2022/08/13 15:07:50;;;;;;;1.83;1.70;;;43.70;29.30;;;;;;4958917;28;20034;-76
2022/08/13 15:10:23;;;;;;;1.73;1.50;;;43.30;28.50;;;;;;4959029;28;20050;-73
2022/08/13 15:12:50;;;;;;;2.50;1.60;;;42.70;29.50;;;;;;4968556;28;20050;-74
2022/08/13 15:15:17;;;;;;;3.20;1.65;;;42.20;28.80;;;;;;4958550;28;20124;-73
2022/08/13 15:17:46;;;;;;;3.78;1.70;;;42.60;29.00;;;;;;4972583;28;20520;-73
2022/08/13 15:20:13;;;;;;;4.35;1.70;;;43.20;28.80;;;;;;4970530;28;20043;-74
2022/08/13 15:22:40;;;;;;;3.08;1.73;;;43.40;28.70;;;;;;4959907;28;20036;-73
2022/08/13 15:25:09;;;;;;;3.80;1.73;;;43.60;28.30;;;;;;4972889;28;20173;-73
2022/08/13 15:27:39;;;;;;;1.70;1.60;;;43.60;28.00;;;;;;4964492;28;20040;-73
2022/08/13 15:30:08;;;;;;;2.55;1.60;;;42.30;29.50;;;;;;4958020;28;20502;-74
2022/08/13 15:32:33;;;;;;;2.97;1.67;;;41.90;28.30;;;;;;4974916;28;20036;-74
2022/08/13 15:34:59;;;;;;;1.77;1.67;;;42.20;28.60;;;;;;4963397;28;20044;-74
2022/08/13 15:37:25;;;;;;;1.90;1.80;;;42.80;29.00;;;;;;4966915;28;20042;-74
2022/08/13 15:39:52;;;;;;;2.50;1.85;;;44.70;28.30;;;;;;4977721;28;20043;-73
2022/08/13 15:42:19;;;;;;;2.30;2.10;;;44.50;27.80;;;;;;4978140;28;20040;-73
2022/08/13 15:44:45;;;;;;;2.20;2.00;;;43.90;28.00;;;;;;4977783;28;20122;-74
2022/08/13 15:47:16;;;;;;;2.13;1.80;;;43.80;27.90;;;;;;4966606;28;20039;-74
2022/08/13 15:49:46;;;;;;;3.92;1.80;;;43.60;28.50;;;;;;4971884;28;20039;-74
2022/08/13 15:52:17;;;;;;;2.25;1.90;;;43.60;28.80;;;;;;4975330;28;20039;-74
2022/08/13 15:54:43;;;;;;;1.85;1.75;;;44.20;28.40;;;;;;4978051;28;20484;-73
2022/08/13 15:57:09;;;;;;;2.38;1.52;;;44.60;27.90;;;;;;4967827;28;20070;-74
2022/08/13 15:59:38;;;;;;;3.88;1.70;;;44.40;28.10;;;;;;4959703;28;20598;-74
2022/08/13 16:02:04;;;;;;;1.98;1.73;;;44.30;27.40;;;;;;4976681;28;20039;-74
2022/08/13 16:04:31;;;;;;;5.53;2.00;;;44.30;27.60;;;;;;4973856;28;20086;-75
2022/08/13 16:06:59;;;;;;;3.38;1.85;;;45.00;27.00;;;;;;4968231;28;20122;-74
2022/08/13 16:09:30;;;;;;;1.70;1.60;;;44.10;27.40;;;;;;4978776;28;20097;-74
2022/08/13 16:11:56;;;;;;;3.03;1.70;;;43.20;28.10;;;;;;4961825;28;20044;-73
2022/08/13 16:14:21;;;;;;;4.70;3.13;;;43.50;28.10;;;;;;4958274;28;20075;-74
2022/08/13 16:16:53;;;;;;;2.90;1.70;;;43.90;27.70;;;;;;4960337;28;20040;-74
2022/08/13 16:19:20;;;;;;;3.83;1.90;;;44.80;27.50;;;;;;4966550;28;20035;-74
2022/08/13 16:21:46;;;;;;;3.35;1.90;;;44.40;28.20;;;;;;4960792;28;20036;-74
2022/08/13 16:24:11;;;;;;;2.85;1.90;;;44.60;27.70;;;;;;4977589;28;20035;-74
2022/08/13 16:26:37;;;;;;;2.22;1.70;;;44.30;27.70;;;;;;4972673;28;20027;-74
2022/08/13 16:29:04;;;;;;;3.00;2.10;;;44.40;27.70;;;;;;4959540;28;20040;-74
2022/08/13 16:31:31;;;;;;;2.85;1.70;;;43.70;27.30;;;;;;4976316;28;20048;-74
2022/08/13 16:33:58;;;;;;;3.28;1.80;;;44.10;27.90;;;;;;4973983;28;20035;-74
2022/08/13 16:36:24;;;;;;;1.63;1.42;;;43.40;28.40;;;;;;4966986;28;20039;-73
2022/08/13 16:38:51;;;;;;;5.90;1.80;;;42.90;28.50;;;;;;4958765;28;20028;-73
2022/08/13 16:41:16;;;;;;;3.45;1.70;;;43.50;28.80;;;;;;4961993;28;20583;-73
2022/08/13 16:43:44;;;;;;;1.83;1.60;;;43.10;28.50;;;;;;4959217;28;20071;-74
2022/08/13 16:46:11;;;;;;;4.10;1.70;;;43.60;28.50;;;;;;4964557;28;20043;-74
2022/08/13 16:48:40;;;;;;;1.95;1.80;;;43.50;27.80;;;;;;4988381;23;20082;-77
2022/08/13 16:51:06;;;;;;;2.58;1.70;;;43.60;28.00;;;;;;4983209;28;20051;-78
2022/08/13 16:53:31;;;;;;;2.10;1.80;;;42.70;27.80;;;;;;4981560;28;20039;-77
2022/08/13 16:55:57;;;;;;;1.73;1.63;;;41.30;29.40;;;;;;4979077;28;20035;-78
2022/08/13 16:58:23;;;;;;;1.90;1.45;;;40.60;29.50;;;;;;4965421;28;20032;-78
2022/08/13 17:00:49;;;;;;;1.73;1.63;;;38.90;30.00;;;;;;4959647;28;20036;-78
2022/08/13 17:11:34;;;;;;;2.05;1.50;;;33.40;37.00;;;;;;4958767;28;20044;-77